createdAt,value
2018-11-12T00:01:56.183Z,10.47
2018-11-12T00:04:30.010Z,7.80
2018-11-12T00:07:03.980Z,8.53
2018-11-12T00:09:37.780Z,8.43
2018-11-12T00:12:11.571Z,8.83
2018-11-12T00:14:45.392Z,9.13
2018-11-12T00:17:23.952Z,8.23
2018-11-12T00:19:57.781Z,8.17
2018-11-12T00:22:36.195Z,7.17
2018-11-12T00:25:10.019Z,8.50
2018-11-12T00:27:44.819Z,9.57
2018-11-12T00:30:19.528Z,9.53
2018-11-12T00:32:53.320Z,9.53
2018-11-12T00:35:27.059Z,8.63
2018-11-12T00:38:00.823Z,8.00
2018-11-12T00:40:34.725Z,9.77
2018-11-12T00:43:08.556Z,8.83
2018-11-12T00:45:42.307Z,8.43
2018-11-12T00:48:16.143Z,9.33
2018-11-12T00:50:49.896Z,8.50
2018-11-12T00:53:26.700Z,7.30
2018-11-12T00:56:00.483Z,8.93
2018-11-12T00:58:36.307Z,13.43
2018-11-12T01:01:10.104Z,8.23
2018-11-12T01:03:44.946Z,6.63
2018-11-12T01:06:18.732Z,7.53
2018-11-12T01:08:56.952Z,6.50
2018-11-12T01:11:30.774Z,10.00
2018-11-12T01:14:08.034Z,7.40
2018-11-12T01:16:41.812Z,11.70
2018-11-12T01:19:16.603Z,10.50
2018-11-12T01:21:50.403Z,9.60
2018-11-12T01:24:24.197Z,8.73
2018-11-12T01:26:57.993Z,7.03
2018-11-12T01:29:36.566Z,8.67
2018-11-12T01:32:10.323Z,8.07
2018-11-12T01:34:45.142Z,10.00
2018-11-12T01:37:18.956Z,11.93
2018-11-12T01:39:52.761Z,8.77
2018-11-12T01:42:26.519Z,12.07
2018-11-12T01:45:01.318Z,6.57
2018-11-12T01:47:35.091Z,8.50
2018-11-12T01:50:10.232Z,10.27
2018-11-12T01:52:44.521Z,7.40
2018-11-12T01:55:19.298Z,7.50
2018-11-12T01:57:53.054Z,10.33
2018-11-12T02:00:29.909Z,9.13
2018-11-12T02:03:03.691Z,9.33
2018-11-12T02:05:37.553Z,6.97
2018-11-12T02:08:11.506Z,9.87
2018-11-12T02:10:45.320Z,8.00
2018-11-12T02:13:19.070Z,7.30
2018-11-12T02:15:52.926Z,5.63
2018-11-12T02:18:26.694Z,10.40
2018-11-12T02:21:01.448Z,7.43
2018-11-12T02:23:35.447Z,6.13
2018-11-12T02:26:09.296Z,7.33
2018-11-12T02:28:43.066Z,5.60
2018-11-12T02:31:16.852Z,8.57
2018-11-12T02:33:50.633Z,8.13
2018-11-12T02:36:25.434Z,6.73
2018-11-12T02:38:59.197Z,6.77
2018-11-12T02:41:33.044Z,6.13
2018-11-12T02:44:07.498Z,8.73
2018-11-12T02:46:42.282Z,6.73
2018-11-12T02:49:16.078Z,7.03
2018-11-12T02:51:49.916Z,8.27
2018-11-12T02:54:23.718Z,7.17
2018-11-12T02:56:59.575Z,12.67
2018-11-12T02:59:33.396Z,9.27
2018-11-12T03:02:07.181Z,5.87
2018-11-12T03:04:41.017Z,5.77
2018-11-12T03:07:16.215Z,5.40
2018-11-12T03:09:50.163Z,4.87
2018-11-12T03:12:23.946Z,4.90
2018-11-12T03:14:57.719Z,4.40
2018-11-12T03:17:31.578Z,6.50
2018-11-12T03:20:06.445Z,8.77
2018-11-12T03:22:41.342Z,3.73
2018-11-12T03:25:16.315Z,9.83
2018-11-12T03:27:51.191Z,8.00
2018-11-12T03:30:25.123Z,6.97
2018-11-12T03:32:58.920Z,9.20
2018-11-12T03:35:32.736Z,9.87
2018-11-12T03:38:08.585Z,7.93
2018-11-12T03:40:42.416Z,7.80
2018-11-12T03:43:16.205Z,10.83
2018-11-12T03:45:49.977Z,9.33
2018-11-12T03:48:23.797Z,6.33
2018-11-12T03:50:57.593Z,9.37
2018-11-12T03:53:32.484Z,7.00
2018-11-12T03:56:06.765Z,6.53
2018-11-12T03:58:40.548Z,9.27
2018-11-12T04:01:14.353Z,8.77
2018-11-12T04:03:51.141Z,11.03
2018-11-12T04:06:24.916Z,13.63
2018-11-12T04:08:58.660Z,7.73
2018-11-12T04:11:32.449Z,8.00
2018-11-12T04:14:08.121Z,7.27
2018-11-12T04:16:43.392Z,7.20
2018-11-12T04:19:17.221Z,7.40
2018-11-12T04:21:51.018Z,5.27
2018-11-12T04:24:26.841Z,8.57
2018-11-12T04:27:00.628Z,11.47
2018-11-12T04:29:35.513Z,6.93
2018-11-12T04:32:09.309Z,5.47
2018-11-12T04:34:44.096Z,5.83
2018-11-12T04:37:17.958Z,8.67
2018-11-12T04:39:52.737Z,11.33
2018-11-12T04:42:26.576Z,7.40
2018-11-12T04:45:01.361Z,6.37
2018-11-12T04:47:35.285Z,9.43
2018-11-12T04:50:16.492Z,7.33
2018-11-12T04:52:50.590Z,8.83
2018-11-12T04:55:25.875Z,10.07
2018-11-12T04:57:59.788Z,6.93
2018-11-12T05:00:33.672Z,7.63
2018-11-12T05:03:07.464Z,9.77
2018-11-12T05:05:42.317Z,8.53
2018-11-12T05:08:16.112Z,10.73
2018-11-12T05:10:54.332Z,7.57
2018-11-12T05:13:28.145Z,8.30
2018-11-12T05:16:02.968Z,8.90
2018-11-12T05:18:36.850Z,9.87
2018-11-12T05:21:16.147Z,9.67
2018-11-12T05:23:49.957Z,9.60
2018-11-12T05:26:24.855Z,8.27
2018-11-12T05:28:58.684Z,8.90
2018-11-12T05:31:35.722Z,6.23
2018-11-12T05:34:09.553Z,9.30
2018-11-12T05:36:43.458Z,6.20
2018-11-12T05:39:17.302Z,9.20
2018-11-12T05:41:53.744Z,10.57
2018-11-12T05:44:27.557Z,8.93
2018-11-12T05:47:02.372Z,8.13
2018-11-12T05:49:36.180Z,9.03
2018-11-12T05:52:10.993Z,6.93
2018-11-12T05:54:44.852Z,7.70
2018-11-12T05:57:20.733Z,8.60
2018-11-12T05:59:54.545Z,11.37
2018-11-12T06:02:29.386Z,11.53
2018-11-12T06:05:03.238Z,9.77
2018-11-12T06:07:43.583Z,7.43
2018-11-12T06:10:19.582Z,8.07
2018-11-12T06:12:55.469Z,8.50
2018-11-12T06:15:29.290Z,9.27
2018-11-12T06:18:04.161Z,7.63
2018-11-12T06:20:38.100Z,8.63
2018-11-12T06:23:15.854Z,7.07
2018-11-12T06:25:49.611Z,9.20
2018-11-12T06:28:23.403Z,8.17
2018-11-12T06:30:57.274Z,7.57
2018-11-12T06:33:32.257Z,7.93
2018-11-12T06:36:06.621Z,5.27
2018-11-12T06:38:45.506Z,7.87
2018-11-12T06:41:19.394Z,7.83
2018-11-12T06:43:58.409Z,9.97
2018-11-12T06:46:32.259Z,10.60
2018-11-12T06:49:10.394Z,11.23
2018-11-12T06:51:44.601Z,6.80
2018-11-12T06:54:22.532Z,10.60
2018-11-12T06:56:56.361Z,9.87
2018-11-12T06:59:32.413Z,12.47
2018-11-12T07:02:06.877Z,6.43
2018-11-12T07:04:53.282Z,10.27
2018-11-12T07:07:27.095Z,7.40
2018-11-12T07:10:07.707Z,6.73
2018-11-12T07:12:42.479Z,7.80
2018-11-12T07:15:20.833Z,6.30
2018-11-12T07:17:54.666Z,6.50
2018-11-12T07:20:30.555Z,8.80
2018-11-12T07:23:04.407Z,7.10
2018-11-12T07:25:42.220Z,8.23
2018-11-12T07:28:15.998Z,10.43
2018-11-12T07:30:57.548Z,5.43
2018-11-12T07:33:31.447Z,5.23
2018-11-12T07:36:10.869Z,6.33
2018-11-12T07:38:44.846Z,7.33
2018-11-12T07:41:42.282Z,5.10
2018-11-12T07:44:16.078Z,4.27
2018-11-12T07:49:48.958Z,7.27
2018-11-12T07:52:22.727Z,5.43
2018-11-12T07:55:14.092Z,7.27
2018-11-12T07:57:48.905Z,6.17
2018-11-12T08:00:31.799Z,6.00
2018-11-12T08:03:07.139Z,5.00
2018-11-12T08:05:45.222Z,7.23
2018-11-12T08:08:19.002Z,4.47
2018-11-12T08:10:53.896Z,6.30
2018-11-12T08:13:27.681Z,3.40
2018-11-12T08:16:05.715Z,5.77
2018-11-12T08:18:39.707Z,6.77
2018-11-12T08:21:15.665Z,6.63
2018-11-12T08:23:49.469Z,6.00
2018-11-12T08:26:24.290Z,4.10
2018-11-12T08:28:58.266Z,4.00
2018-11-12T08:31:33.183Z,3.77
2018-11-12T08:34:06.953Z,4.83
2018-11-12T08:36:42.901Z,4.90
2018-11-12T08:39:16.895Z,4.90
2018-11-12T08:41:50.866Z,6.50
2018-11-12T08:44:24.614Z,4.80
2018-11-12T08:49:55.970Z,4.70
2018-11-12T08:52:30.294Z,6.20
2018-11-12T08:55:05.556Z,3.87
2018-11-12T08:57:39.836Z,6.70
2018-11-12T09:00:14.849Z,5.83
2018-11-12T09:02:48.896Z,4.53
2018-11-12T09:05:25.095Z,8.00
2018-11-12T09:08:00.124Z,5.07
2018-11-12T09:10:35.253Z,5.73
2018-11-12T09:13:09.041Z,5.17
2018-11-12T09:15:42.855Z,8.10
2018-11-12T09:18:16.895Z,4.33
2018-11-12T09:20:50.662Z,5.77
2018-11-12T09:23:24.449Z,6.67
2018-11-12T09:25:58.265Z,6.03
2018-11-12T09:28:32.054Z,5.97
2018-11-12T09:31:07.890Z,4.00
2018-11-12T09:33:40.324Z,5.47
2018-11-12T09:36:14.152Z,5.73
2018-11-12T09:38:48.217Z,4.00
2018-11-12T09:41:22.401Z,6.67
2018-11-12T09:43:56.281Z,5.03
2018-11-12T09:46:30.048Z,6.93
2018-11-12T09:49:03.943Z,8.23
2018-11-12T09:51:38.885Z,6.33
2018-11-12T09:54:12.698Z,8.70
2018-11-12T09:56:46.704Z,6.70
2018-11-12T09:59:20.560Z,6.90
2018-11-12T10:01:55.317Z,8.57
2018-11-12T10:04:29.933Z,10.07
2018-11-12T10:07:11.154Z,9.53
2018-11-12T10:09:45.845Z,10.83
2018-11-12T10:12:38.532Z,11.43
2018-11-12T10:15:11.986Z,12.63
2018-11-12T10:17:47.849Z,13.93
2018-11-12T10:20:18.507Z,11.13
2018-11-12T10:22:52.991Z,16.03
2018-11-12T10:25:26.911Z,11.03
2018-11-12T10:28:10.447Z,19.40
2018-11-12T10:30:44.326Z,13.00
2018-11-12T10:33:19.995Z,16.53
2018-11-12T10:35:53.878Z,13.87
2018-11-12T10:38:27.912Z,14.47
2018-11-12T10:41:01.777Z,15.00
2018-11-12T10:43:37.126Z,13.87
2018-11-12T10:46:10.925Z,10.67
2018-11-12T10:48:44.840Z,13.73
2018-11-12T10:51:18.680Z,12.60
2018-11-12T10:53:58.333Z,14.97
2018-11-12T10:56:32.124Z,14.30
2018-11-12T10:59:08.694Z,11.63
2018-11-12T11:01:47.744Z,14.83
2018-11-12T11:04:27.879Z,16.37
2018-11-12T11:07:01.684Z,17.37
2018-11-12T11:09:35.714Z,14.63
2018-11-12T11:12:09.563Z,16.73
2018-11-12T11:14:43.444Z,15.13
2018-11-12T11:17:17.242Z,19.03
2018-11-12T11:19:51.213Z,20.00
2018-11-12T11:22:25.090Z,19.73
2018-11-12T11:24:59.331Z,18.33
2018-11-12T11:27:33.131Z,20.13
2018-11-12T11:30:10.340Z,19.77
2018-11-12T11:32:44.317Z,18.07
2018-11-12T11:35:19.162Z,20.20
2018-11-12T11:37:53.033Z,20.83
2018-11-12T11:40:27.652Z,19.63
2018-11-12T11:43:01.599Z,20.33
2018-11-12T11:45:36.872Z,18.57
2018-11-12T11:48:11.212Z,17.27
2018-11-12T11:50:45.144Z,17.17
2018-11-12T11:53:19.088Z,18.53
2018-11-12T11:55:53.237Z,20.90
2018-11-12T11:58:27.023Z,24.20
2018-11-12T12:01:01.086Z,20.23
2018-11-12T12:03:35.032Z,22.83
2018-11-12T12:06:10.295Z,20.87
2018-11-12T12:08:44.134Z,20.70
2018-11-12T12:11:18.518Z,22.83
2018-11-12T12:13:52.330Z,19.57
2018-11-12T12:16:26.222Z,17.60
2018-11-12T12:19:00.052Z,21.77
2018-11-12T12:21:33.938Z,15.23
2018-11-12T12:24:07.815Z,17.73
2018-11-12T12:26:42.237Z,17.50
2018-11-12T12:29:16.042Z,20.47
2018-11-12T12:31:51.877Z,18.40
2018-11-12T12:34:25.696Z,21.03
2018-11-12T12:36:59.654Z,19.37
2018-11-12T12:39:33.448Z,16.60
2018-11-12T12:42:07.366Z,15.97
2018-11-12T12:44:41.184Z,17.77
2018-11-12T12:47:15.691Z,19.47
2018-11-12T12:49:49.513Z,16.63
2018-11-12T12:52:24.835Z,19.73
2018-11-12T12:54:58.737Z,15.60
2018-11-12T12:57:33.115Z,19.37
2018-11-12T13:00:10.814Z,21.83
2018-11-12T13:02:56.768Z,18.97
2018-11-12T13:05:30.553Z,19.93
2018-11-12T13:08:05.754Z,18.13
2018-11-12T13:10:39.516Z,18.87
2018-11-12T13:13:13.606Z,20.20
2018-11-12T13:15:47.435Z,20.83
2018-11-12T13:18:21.838Z,20.77
2018-11-12T13:20:55.668Z,22.67
2018-11-12T13:23:29.968Z,22.23
2018-11-12T13:26:03.798Z,20.40
2018-11-12T13:28:37.690Z,22.70
2018-11-12T13:31:11.510Z,20.33
2018-11-12T13:33:45.281Z,25.73
2018-11-12T13:36:19.090Z,23.57
2018-11-12T13:38:53.948Z,23.73
2018-11-12T13:41:27.794Z,21.87
2018-11-12T13:44:01.646Z,23.83
2018-11-12T13:46:40.841Z,25.50
2018-11-12T13:49:14.625Z,24.60
2018-11-12T13:51:49.545Z,31.27
2018-11-12T13:54:23.270Z,26.97
2018-11-12T13:56:58.165Z,27.20
2018-11-12T13:59:31.930Z,25.40
2018-11-12T14:02:05.864Z,27.90
2018-11-12T14:04:39.692Z,25.90
2018-11-12T14:07:14.559Z,25.60
2018-11-12T14:09:48.430Z,27.03
2018-11-12T14:12:22.244Z,32.30
2018-11-12T14:14:56.063Z,29.60
2018-11-12T14:17:31.093Z,33.53
2018-11-12T14:20:05.582Z,32.10
2018-11-12T14:22:40.650Z,39.37
2018-11-12T14:25:15.582Z,29.10
2018-11-12T14:27:51.874Z,37.87
2018-11-12T14:30:29.969Z,32.80
2018-11-12T14:33:05.858Z,32.90
2018-11-12T14:35:39.866Z,31.50
2018-11-12T14:38:14.828Z,36.83
2018-11-12T14:40:48.609Z,31.60
2018-11-12T14:43:22.493Z,30.00
2018-11-12T14:45:56.251Z,34.00
2018-11-12T14:48:32.124Z,36.77
2018-11-12T14:51:06.566Z,33.80
2018-11-12T14:53:42.506Z,37.23
2018-11-12T14:56:16.250Z,32.97
2018-11-12T14:58:50.165Z,33.47
2018-11-12T15:01:23.962Z,32.37
2018-11-12T15:03:59.777Z,35.50
2018-11-12T15:06:33.527Z,33.77
2018-11-12T15:09:13.088Z,33.17
2018-11-12T15:11:48.557Z,32.27
2018-11-12T15:14:24.416Z,30.63
2018-11-12T15:16:58.153Z,35.10
2018-11-12T15:19:33.005Z,35.70
2018-11-12T15:22:07.125Z,34.40
2018-11-12T15:24:40.988Z,33.43
2018-11-12T15:27:14.761Z,35.77
2018-11-12T15:29:50.656Z,34.43
2018-11-12T15:32:24.477Z,30.10
2018-11-12T15:35:00.308Z,30.10
2018-11-12T15:37:34.103Z,29.50
2018-11-12T15:40:10.677Z,34.07
2018-11-12T15:42:44.428Z,29.80
2018-11-12T15:45:20.883Z,32.50
2018-11-12T15:47:54.665Z,33.87
2018-11-12T15:50:31.152Z,30.43
2018-11-12T15:53:05.028Z,32.60
2018-11-12T15:58:37.493Z,28.37
2018-11-12T16:01:11.292Z,31.17
2018-11-12T16:03:50.449Z,29.33
2018-11-12T16:06:24.623Z,30.37
2018-11-12T16:08:59.601Z,27.93
2018-11-12T16:11:33.397Z,23.57
2018-11-12T16:14:07.780Z,22.83
2018-11-12T16:16:41.576Z,25.33
2018-11-12T16:19:16.596Z,28.33
2018-11-12T16:21:50.504Z,24.93
2018-11-12T16:30:35.933Z,16.27
2018-11-12T16:33:09.742Z,17.30
2018-11-12T16:35:49.195Z,16.93
2018-11-12T16:38:23.059Z,17.77
2018-11-12T16:41:01.398Z,16.13
2018-11-12T16:43:35.176Z,17.33
2018-11-12T16:46:18.550Z,16.50
2018-11-12T16:48:52.372Z,15.90
2018-11-12T16:54:24.539Z,13.67
2018-11-12T16:56:58.324Z,14.77
2018-11-12T16:59:32.138Z,12.37
2018-11-12T17:02:06.569Z,12.17
2018-11-12T17:04:42.419Z,10.87
2018-11-12T17:07:16.283Z,13.93
2018-11-12T17:09:51.084Z,12.87
2018-11-12T17:12:24.951Z,12.63
2018-11-12T17:15:00.839Z,11.20
2018-11-12T17:17:34.673Z,12.60
2018-11-12T17:20:10.965Z,10.23
2018-11-12T17:22:44.696Z,11.40
2018-11-12T17:25:23.535Z,10.37
2018-11-12T17:27:57.326Z,12.03
2018-11-12T17:30:31.176Z,11.73
2018-11-12T17:33:05.305Z,12.10
2018-11-12T17:35:40.092Z,10.23
2018-11-12T17:38:13.835Z,10.67
2018-11-12T17:40:48.670Z,9.20
2018-11-12T17:43:22.458Z,9.27
2018-11-12T17:45:56.456Z,11.57
2018-11-12T17:48:30.250Z,8.97
2018-11-12T17:51:04.057Z,9.27
2018-11-12T17:53:37.852Z,8.40
2018-11-12T17:56:11.669Z,8.90
2018-11-12T17:58:45.438Z,7.60
2018-11-12T18:01:19.350Z,9.20
2018-11-12T18:03:53.458Z,8.93
2018-11-12T18:06:28.866Z,9.75
2018-11-12T18:09:03.058Z,7.33
2018-11-12T18:11:36.894Z,8.30
2018-11-12T18:14:11.732Z,6.57
2018-11-12T18:16:49.324Z,7.15
2018-11-12T18:19:23.661Z,7.50
2018-11-12T18:21:58.514Z,8.75
2018-11-12T18:24:32.394Z,7.30
2018-11-12T18:27:07.978Z,8.03
2018-11-12T18:29:42.289Z,6.22
2018-11-12T18:32:18.729Z,8.45
2018-11-12T18:34:52.481Z,7.97
2018-11-12T18:37:27.965Z,5.87
2018-11-12T18:40:02.309Z,10.30
2018-11-12T18:42:37.734Z,6.60
2018-11-12T18:45:13.828Z,12.50
2018-11-12T18:47:48.742Z,8.00
2018-11-12T18:50:23.906Z,6.77
2018-11-12T18:52:57.969Z,7.40
2018-11-12T18:55:31.745Z,9.20
2018-11-12T18:58:05.701Z,25.67
2018-11-12T19:00:39.804Z,7.20
2018-11-12T19:03:15.648Z,6.60
2018-11-12T19:05:49.386Z,7.57
2018-11-12T19:08:23.314Z,6.07
2018-11-12T19:10:57.259Z,8.47
2018-11-12T19:13:32.301Z,6.43
2018-11-12T19:16:06.942Z,9.27
2018-11-12T19:18:44.843Z,6.33
2018-11-12T19:21:18.663Z,5.83
2018-11-12T19:23:53.267Z,11.70
2018-11-12T19:26:27.035Z,10.38
2018-11-12T19:29:02.426Z,8.55
2018-11-12T19:31:36.835Z,6.37
2018-11-12T19:34:12.238Z,7.85
2018-11-12T19:36:46.553Z,7.10
2018-11-12T19:39:22.058Z,5.90
2018-11-12T19:41:56.447Z,7.47
2018-11-12T19:44:33.058Z,5.67
2018-11-12T19:47:07.441Z,8.40
2018-11-12T19:49:43.363Z,5.92
2018-11-12T19:52:17.785Z,8.38
2018-11-12T19:54:52.586Z,5.95
2018-11-12T19:57:27.003Z,7.65
2018-11-12T20:00:02.173Z,11.33
2018-11-12T20:02:36.537Z,10.15
2018-11-12T20:05:12.028Z,13.15
2018-11-12T20:07:46.411Z,15.43
2018-11-12T20:10:22.622Z,16.77
2018-11-12T20:12:57.103Z,19.95
2018-11-12T20:15:33.592Z,20.00
2018-11-12T20:18:08.183Z,20.52
2018-11-12T20:20:44.539Z,22.70
2018-11-12T20:23:18.888Z,20.35
2018-11-12T20:25:53.281Z,23.40
2018-11-12T20:28:27.649Z,24.02
2018-11-12T20:31:03.046Z,24.15
2018-11-12T20:33:37.372Z,22.40
2018-11-12T20:36:11.825Z,25.52
2018-11-12T20:38:46.195Z,25.32
2018-11-12T20:41:20.753Z,25.55
2018-11-12T20:43:55.112Z,23.05
2018-11-12T20:46:29.968Z,23.77
2018-11-12T20:49:03.810Z,26.87
2018-11-12T20:51:38.621Z,24.83
2018-11-12T20:54:12.984Z,29.12
2018-11-12T20:56:47.738Z,25.60
2018-11-12T20:59:21.604Z,23.63
2018-11-12T21:01:59.581Z,25.43
2018-11-12T21:04:33.377Z,25.73
2018-11-12T21:07:12.553Z,25.27
2018-11-12T21:09:46.350Z,28.83
2018-11-12T21:12:24.447Z,30.00
2018-11-12T21:14:58.989Z,30.40
2018-11-12T21:17:35.572Z,28.55
2018-11-12T21:20:11.594Z,26.73
2018-11-12T21:22:47.049Z,26.93
2018-11-12T21:25:22.136Z,27.10
2018-11-12T21:27:59.128Z,26.57
2018-11-12T21:30:32.924Z,23.87
2018-11-12T21:33:06.748Z,20.37
2018-11-12T21:35:40.520Z,21.87
2018-11-12T21:38:14.421Z,23.50
2018-11-12T21:40:48.198Z,25.37
2018-11-12T21:43:23.134Z,26.70
2018-11-12T21:45:57.046Z,25.87
2018-11-12T21:48:31.861Z,25.63
2018-11-12T21:51:05.900Z,28.40
2018-11-12T21:53:39.749Z,27.90
2018-11-12T21:56:13.605Z,27.23
2018-11-12T21:58:48.592Z,24.33
2018-11-12T22:01:22.463Z,28.73
2018-11-12T22:03:56.349Z,28.33
2018-11-12T22:06:30.117Z,27.17
2018-11-12T22:09:06.284Z,25.07
2018-11-12T22:11:40.475Z,26.77
2018-11-12T22:14:16.288Z,26.70
2018-11-12T22:16:50.176Z,28.87
2018-11-12T22:19:25.298Z,28.97
2018-11-12T22:21:59.059Z,34.90
2018-11-12T22:24:32.925Z,30.53
2018-11-12T22:27:07.647Z,31.43
2018-11-12T22:53:25.329Z,33.67
2018-11-12T22:55:59.326Z,34.43
2018-11-12T22:58:33.118Z,35.60
2018-11-12T23:36:44.344Z,31.30
2018-11-12T23:39:18.096Z,31.03
2018-11-12T23:41:52.960Z,32.30
2018-11-12T23:44:26.769Z,31.17
2018-11-12T23:47:00.594Z,29.17
2018-11-12T23:49:34.483Z,30.53
2018-11-12T23:52:09.387Z,27.07
2018-11-12T23:54:43.149Z,26.07
2018-11-12T23:57:18.090Z,29.67
2018-11-12T23:59:51.859Z,27.83
